Lake Mills, WI (53551)

6:12 PM CST on December 03, 2016 (GMT -0600)
Cambridge | | Change Station
Active Advisory: Winter Weather Advisory

Elev 883 ft 43.00 °N, 89.01 °W | Updated 39 seconds ago

Overcast
Overcast
32.4 °F
Feels Like 32 °F
N
0.0
Wind Variable Wind from North

Today
High -- | Low -- °F
--% Chance of Precip.
Yesterday
High -- | Low -- °F
Precip. -- in
Pressure 30.28 in
Visibility 10.0 miles
Clouds Overcast 3100 ft
Windchill 32 °F
Dew Point 24 °F
Humidity 70%
Rainfall 0.00 in
Snow Depth Not available.
7:10 AM 4:21 PM
Waxing Crescent, 18% visible
METAR KRYV 032355Z AUTO 00000KT 10SM OVC031 M01/M03 A3028 RMK AO2 T10071031 11005 21010
Pressure 30.28 in
Visibility 10.0 miles
Clouds Overcast 3100 ft
Windchill 32 °F
Dew Point 24 °F
Humidity 70%
Rainfall 0.00 in
Snow Depth Not available.
7:10 AM 4:21 PM
Waxing Crescent, 18% visible
METAR KRYV 032355Z AUTO 00000KT 10SM OVC031 M01/M03 A3028 RMK AO2 T10071031 11005 21010

10-Day Weather Forecast

Almanac

Astronomy

Dec. 03, 2016 Rise Set
Actual Time
Civil Twilight
Nautical Twilight
Astronomical Twilight
Moon
Length of Visible Light
Length of Day
Tomorrow will be .
, % of the Moon is Illuminated

Today's Extremes

State Highs State Lows

Community

WunderPhotos

Upload Photos

1,955,536 photos uploaded!

WunderBlog® & News

Nearby

Air Quality

  Air Quality AQ Index Pollutant
Not available.

Snow Depth

Station Depth Elevation

Earthquake Activity

City Distance Mag. Time & Date
Minimum magnitude displayed is 2.5.

Coastal Water Temperatures

Place Temperature

Stations

Nearby Weather Stations

Station Location Temp. Windchill Dew Point Humidity Wind Precip. Elev Updated Type
                   

Watches & Warnings

Winter Weather Advisory
Issued: 1:55 PM CST Dec. 3, 2016 – National Weather Service

... Winter Weather Advisory in effect from 7 am to 6 PM CST
Sunday...

The National Weather Service in Milwaukee/Sullivan has issued a
Winter Weather Advisory for snow... which is in effect from 7 am
to 6 PM CST Sunday.

* Timing... starting around 8 am at Fond Du Lac and Watertown.
Starting around 9 am at Milwaukee.

* Snow accumulations... 1 to 3 inches.

* Winds... south at 10 mph.

* Impacts... slippery spots on untreated roads creating hazardous
travel.

Precautionary/preparedness actions...

A Winter Weather Advisory for snow means that periods of snow
will cause primarily travel difficulties. Be prepared for snow
covered roads and limited visibilities... and use caution while
driving.



Marquardt